• Join FlightAware (Why Join?)
  • Login
  • US Flag 
03:37PM EDT


 

Airport Tracker/Info


-or-


 

Live Flight TrackerFlight Track Log ✈ JBU1083 ✈ 26-Jun-2013 ✈ KJFK - KMCO

Flight Track Log - Related Links

Times and Time Zones

All times are in EDT time to prevent confusion due to time zone crossing. See the JBU1083 flight status page for this flight to view local times or setup timezone preferences in your user account.

Time Position Orientation Groundspeed Altitude Reporting Facility
EDT Latitude Longitude Course Direction KTS MPH feet Rate Location/Type
08:38PM 40.6000 -73.8000 270° West 165 190 1,400  Level New York TRACON
08:39PM 40.5500 -73.8333 207° Southwest 243 280 2,600 1,800 Climbing New York TRACON
08:40PM 40.5000 -73.7833 143° Southeast 293 337 5,000 2,100 Climbing New York TRACON
08:41PM 41.1157 -73.8768 281° West  Level FlightAware Approximate
08:42PM 41.1500 -74.0501 270° West  Level FlightAware Approximate
08:42PM 40.6103 -73.6414 44° Northeast 296 341 8,900  Level New York Center
08:43PM 41.1667 -74.2264 270° West  Level FlightAware Approximate
08:43PM 40.6931 -73.5764 31° Northeast 307 353 11,900  Level New York Center
08:44PM 41.1833 -74.4059 270° West  Level FlightAware Approximate
08:44PM 40.7631 -73.5192 32° Northeast 323 372 14,100  Level New York Center
08:45PM 40.8483 -73.5281 355° North 309 356 15,400 1,380 Climbing New York Center
08:46PM 40.9400 -73.6142 325° Northwest 334 384 16,900 1,620 Climbing New York Center
08:47PM 41.0131 -73.6861 323° Northwest 374 430 18,800 1,800 Climbing New York Center
08:48PM 41.0875 -73.7911 313° West 380 437 20,600 1,560 Climbing New York Center
08:49PM 41.1300 -73.9197 294° West 389 448 21,900 1,080 Climbing New York Center
08:50PM 41.1183 -74.0431 263° West 349 402 22,800 660 Climbing New York Center
08:51PM 41.0997 -74.1825 260° West 355 409 23,300 600 Climbing New York Center
08:52PM 41.0558 -74.3344 249° West 380 437 24,100 1,440 Climbing New York Center
08:53PM 40.9933 -74.4686 238° Southwest 405 466 26,300 2,100 Climbing New York Center
08:54PM 40.9353 -74.5864 237° Southwest 405 466 28,300 1,140 Climbing New York Center
08:55PM 40.8769 -74.7147 239° Southwest 405 466 28,600 240 Climbing New York Center
08:56PM 40.8119 -74.8508 238° Southwest 418 481 28,800 300 Climbing New York Center
08:57PM 40.7464 -74.9975 239° Southwest 445 512 29,200 720 Climbing New York Center
08:58PM 40.6744 -75.1436 237° Southwest 463 533 30,300 1,200 Climbing New York Center
08:59PM 40.6083 -75.2897 239° Southwest 469 540 31,700 1,440 Climbing New York Center
09:00PM 40.5475 -75.4114 237° Southwest 469 540 33,200 1,440 Climbing New York Center
09:01PM 40.4814 -75.5514 238° Southwest 462 532 34,600 1,320 Climbing New York Center
09:02PM 40.4178 -75.6833 238° Southwest 445 512 35,900 600 Climbing New York Center
09:03PM 40.3558 -75.8153 238° Southwest 435 501 35,900  Level New York Center
09:04PM 40.2650 -75.9392 226° Southwest 439 505 36,000  Climbing New York Center
09:05PM 40.1944 -76.0289 224° Southwest 444 511 36,000 -60 Level New York Center
09:06PM 40.1056 -76.1472 226° Southwest 434 499 35,900 -60 Descending New York Center
09:07PM 40.0239 -76.2467 223° Southwest 434 499 35,900  Level New York Center
09:08PM 39.9308 -76.3611 223° Southwest 434 499 35,900  Level New York Center
09:09PM 39.8444 -76.4706 224° Southwest 434 499 36,000 60 Climbing New York Center
09:10PM 39.7786 -76.5500 223° Southwest 432 497 36,000  Level Washington Center
09:11PM 39.6903 -76.6594 224° Southwest 432 497 36,000  Level Washington Center
09:12PM 39.6039 -76.7658 224° Southwest 432 497 36,000  Level Washington Center
09:13PM 39.5192 -76.8775 225° Southwest 432 497 36,000  Level Washington Center
09:14PM 39.4431 -76.9917 229° Southwest 427 491 36,000  Level Washington Center
09:15PM 39.3625 -77.1056 228° Southwest 427 491 36,100 540 Climbing Washington Center
09:16PM 39.2817 -77.2219 228° Southwest 434 499 37,100 840 Climbing Washington Center
09:17PM 39.2050 -77.3353 229° Southwest 434 499 37,800 420 Climbing Washington Center
09:18PM 39.1264 -77.4486 228° Southwest 434 499 38,000 60 Climbing Washington Center
09:19PM 39.0475 -77.5586 227° Southwest 434 499 38,000  Level Washington Center
09:20PM 38.9747 -77.6636 228° Southwest 434 499 38,000  Level Washington Center
09:21PM 38.8850 -77.7892 227° Southwest 434 499 38,000  Level Washington Center
09:22PM 38.7994 -77.9117 228° Southwest 446 513 38,000  Level Washington Center
09:23PM 38.7178 -78.0261 228° Southwest 452 520 38,000  Level Washington Center
09:24PM 38.6361 -78.1406 228° Southwest 452 520 38,000 -60 Level Washington Center
09:25PM 38.5544 -78.2544 227° Southwest 452 520 37,900 -60 Descending Washington Center
09:26PM 38.4728 -78.3656 227° Southwest 446 513 37,900  Level Washington Center
09:27PM 38.3931 -78.4792 228° Southwest 446 513 37,900  Level Washington Center
09:28PM 38.3108 -78.5925 227° Southwest 446 513 38,000  Climbing Washington Center
09:29PM 38.2375 -78.6953 228° Southwest 440 506 38,000  Level Washington Center
09:30PM 38.1553 -78.8081 227° Southwest 440 506 38,000  Level Washington Center
09:31PM 38.0642 -78.9333 227° Southwest 440 506 38,000  Level Washington Center
09:32PM 37.9797 -79.0456 226° Southwest 440 506 38,000 -60 Level Washington Center
09:33PM 37.8972 -79.1575 227° Southwest 440 506 37,900  Descending Washington Center
09:34PM 37.8122 -79.2719 227° Southwest 440 506 38,000  Climbing Washington Center
09:35PM 37.7361 -79.3731 226° Southwest 440 506 38,000  Level Washington Center
09:36PM 37.6389 -79.4758 220° Southwest 448 516 38,000  Level Washington Center
09:37PM 37.5094 -79.5453 203° Southwest 458 527 38,000  Level Washington Center
09:38PM 37.3969 -79.6072 204° Southwest 478 550 38,000  Level Washington Center
09:39PM 37.2864 -79.6642 202° Southwest 472 543 38,000 -60 Level Washington Center
09:40PM 37.1717 -79.7258 203° Southwest 459 528 37,900 -60 Descending Washington Center
09:41PM 37.0547 -79.7872 203° Southwest 454 522 37,900  Level Washington Center
09:42PM 36.9294 -79.8531 203° Southwest 454 522 38,000  Climbing Washington Center
09:43PM 36.8125 -79.9142 203° Southwest 454 522 38,000  Level Washington Center
09:44PM 36.6692 -79.9858 202° Southwest 463 533 38,000  Level Atlanta Center
09:45PM 36.5625 -80.0428 203° Southwest 469 540 38,000  Level Atlanta Center
09:46PM 36.4456 -80.1031 203° Southwest 469 540 38,000  Level Atlanta Center
09:47PM 36.3247 -80.1656 203° Southwest 469 540 38,000  Level Atlanta Center
09:48PM 36.1953 -80.2336 203° Southwest 464 534 38,000 -60 Level Atlanta Center
09:49PM 36.0803 -80.2903 202° Southwest 464 534 37,900 -60 Descending Atlanta Center
09:50PM 35.9653 -80.3519 203° Southwest 464 534 37,900  Level Atlanta Center
09:51PM 35.8586 -80.4056 202° Southwest 458 527 37,900  Level Atlanta Center
09:52PM 35.7292 -80.4753 204° Southwest 458 527 38,000  Climbing Atlanta Center
09:53PM 35.6078 -80.5342 202° Southwest 463 533 38,000  Level Atlanta Center
09:54PM 35.4883 -80.5953 203° Southwest 463 533 38,000  Level Atlanta Center
09:55PM 35.3692 -80.6564 203° Southwest 470 541 38,000  Level Atlanta Center
09:56PM 35.2519 -80.7172 203° Southwest 462 532 38,000 -60 Level Atlanta Center
09:58PM 35.0294 -80.8292 202° Southwest 457 526 37,900 -60 Descending Jacksonville Center
09:59PM 34.9136 -80.8875 202° Southwest 452 520 37,900  Level Jacksonville Center
10:00PM 34.7956 -80.9486 203° Southwest 459 528 38,000  Climbing Jacksonville Center
10:01PM 34.6756 -81.0092 203° Southwest 459 528 38,000  Level Jacksonville Center
10:02PM 34.5617 -81.0647 202° Southwest 449 517 38,000 -60 Level Jacksonville Center
10:03PM 34.4581 -81.1147 202° Southwest 449 517 37,900  Descending Jacksonville Center
10:04PM 34.3400 -81.1750 203° Southwest 449 517 38,000  Climbing Jacksonville Center
10:05PM 34.2322 -81.2272 202° Southwest 430 495 38,000 -60 Level Jacksonville Center
10:06PM 34.1161 -81.2772 200° South 435 501 37,900  Descending Jacksonville Center
10:07PM 33.9908 -81.2744 179° South 441 507 38,000  Climbing Jacksonville Center
10:08PM 33.8636 -81.2669 177° South 447 514 38,000 -60 Level Jacksonville Center
10:09PM 33.7403 -81.2667 180° South 447 514 37,900 -60 Descending Jacksonville Center
10:10PM 33.6150 -81.2614 178° South 447 514 37,900  Level Jacksonville Center
10:11PM 33.4919 -81.2589 179° South 447 514 37,900  Level Jacksonville Center
10:12PM 33.3644 -81.2536 178° South 447 514 37,900  Level Jacksonville Center
10:13PM 33.2414 -81.2508 179° South 452 520 38,000  Climbing Jacksonville Center
10:14PM 33.1181 -81.2433 177° South 452 520 38,000 -60 Level Jacksonville Center
10:15PM 32.9950 -81.2406 179° South 447 514 37,900  Descending Jacksonville Center
10:16PM 32.8592 -81.2356 178° South 447 514 38,000  Climbing Jacksonville Center
10:17PM 32.7361 -81.2306 178° South 442 509 37,900 -60 Descending Jacksonville Center
10:18PM 32.6211 -81.2300 180° South 419 482 37,900  Level Jacksonville Center
10:19PM 32.5000 -81.2250 178° South 424 488 37,900  Level Jacksonville Center
10:20PM 32.3767 -81.2175 177° South 429 494 37,900  Level Jacksonville Center
10:21PM 32.2556 -81.2122 178° South 443 510 38,000  Climbing Jacksonville Center
10:22PM 32.1344 -81.2097 179° South 432 497 38,000 -60 Level Jacksonville Center
10:23PM 32.0133 -81.2019 177° South 439 505 37,900 -60 Descending Jacksonville Center
10:24PM 31.8922 -81.2017 180° South 434 499 37,900  Level Jacksonville Center
10:25PM 31.7753 -81.1942 177° South 434 499 38,000  Climbing Jacksonville Center
10:26PM 31.6542 -81.1914 179° South 439 505 38,000  Level Jacksonville Center
10:27PM 31.5433 -81.1886 179° South 439 505 38,000  Level Jacksonville Center
10:28PM 31.4117 -81.1814 177° South 434 499 38,000 -60 Level Jacksonville Center
10:29PM 31.3031 -81.1808 180° South 434 499 37,900 -60 Descending Jacksonville Center
10:30PM 31.1842 -81.1758 178° South 439 505 37,900  Level Jacksonville Center
10:31PM 31.0628 -81.1706 178° South 439 505 37,900  Level Jacksonville Center
10:32PM 30.9458 -81.1681 179° South 439 505 37,900  Level Jacksonville Center
10:33PM 30.8228 -81.1631 178° South 439 505 37,900  Level Jacksonville Center
10:34PM 30.7014 -81.1578 178° South 439 505 38,000  Climbing Jacksonville Center
10:35PM 30.5825 -81.1528 178° South 439 505 37,900 -480 Descending Jacksonville Center
10:36PM 30.4633 -81.1500 179° South 439 505 37,100 -900 Descending Jacksonville Center
10:37PM 30.3403 -81.1453 178° South 439 505 36,100 -1,320 Descending Jacksonville Center
10:38PM 30.2128 -81.1428 179° South 444 511 34,500 -2,100 Descending Jacksonville Center
10:39PM 30.0875 -81.1400 179° South 449 517 32,000 -2,640 Descending Jacksonville Center
10:40PM 29.9581 -81.1378 179° South 455 524 29,300 -2,580 Descending Jacksonville Center
10:41PM 29.8347 -81.1303 177° South 460 529 26,900 -2,400 Descending Jacksonville Center
10:42PM 29.6947 -81.1306 180° South 455 524 24,500 -2,460 Descending Jacksonville Center
10:43PM 29.5717 -81.1256 178° South 455 524 22,000 -2,520 Descending Jacksonville Center
10:44PM 29.4525 -81.1231 179° South 455 524 19,500 -2,400 Descending Jacksonville Center
10:45PM 29.3336 -81.1156 177° South 435 501 17,300 -2,280 Descending Jacksonville Center
10:46PM 29.2206 -81.1058 176° South 425 489 15,000 -2,100 Descending Jacksonville Center
10:47PM 29.1100 -81.0958 175° South 412 474 13,100 -1,500 Descending Jacksonville Center
10:48PM 29.0158 -81.0928 178° South 375 432 12,000 -900 Descending Jacksonville Center
10:49PM 28.9281 -81.0825 174° South 341 392 11,300 -1,380 Descending Jacksonville Center
10:50PM 28.8444 -81.0697 172° South 319 367 9,300 -1,800 Descending Jacksonville Center
10:51PM 28.7653 -81.0736 182° South 304 350 7,700 -1,320 Descending Jacksonville Center
10:52PM 28.7500 -81.1500 257° West 237 273 6,600 -1,140 Descending Orlando TRACON
10:53PM 28.7333 -81.2167 254° West 235 270 5,400 -1,320 Descending Orlando TRACON
10:54PM 28.7167 -81.2833 254° West 234 269 4,100 -1,020 Descending Orlando TRACON
10:55PM 28.6667 -81.3167 210° Southwest 220 253 3,400 -660 Descending Orlando TRACON
10:56PM 28.6000 -81.3167 180° South 196 226 2,800 -540 Descending Orlando TRACON
10:57PM 28.5500 -81.3167 180° South 168 193 2,400 -600 Descending Orlando TRACON
10:58PM 28.5167 -81.3167 180° South 131 151 1,600 -900 Descending Orlando TRACON
10:59PM 28.4833 -81.3167 180° South 134 154 600 -1,020 Descending Orlando TRACON
11:01PM 28.4294 -81.3090 174° South  Level Estimated